createdAt,value
2019-05-18T00:01:42.199Z,12.70
2019-05-18T00:04:11.291Z,12.70
2019-05-18T00:06:40.369Z,12.70
2019-05-18T00:09:09.376Z,12.70
2019-05-18T00:11:38.476Z,12.70
2019-05-18T00:14:07.562Z,12.70
2019-05-18T00:16:36.646Z,12.70
2019-05-18T00:19:05.681Z,12.70
2019-05-18T00:21:34.748Z,12.70
2019-05-18T00:24:03.744Z,12.70
2019-05-18T00:26:32.748Z,12.60
2019-05-18T00:29:02.425Z,12.50
2019-05-18T00:31:31.350Z,12.40
2019-05-18T00:34:00.237Z,12.60
2019-05-18T00:36:29.632Z,12.60
2019-05-18T00:38:58.624Z,12.50
2019-05-18T00:41:27.678Z,12.50
2019-05-18T00:43:56.674Z,12.50
2019-05-18T00:46:25.692Z,12.40
2019-05-18T00:48:55.198Z,12.40
2019-05-18T00:51:24.214Z,12.40
2019-05-18T00:53:53.390Z,12.30
2019-05-18T00:56:22.415Z,12.30
2019-05-18T00:58:51.500Z,12.30
2019-05-18T01:01:20.496Z,12.20
2019-05-18T01:03:49.797Z,12.20
2019-05-18T01:06:18.756Z,12.20
2019-05-18T01:08:47.752Z,12.10
2019-05-18T01:11:16.622Z,12.00
2019-05-18T01:13:45.833Z,12.00
2019-05-18T01:16:14.750Z,11.90
2019-05-18T01:18:43.810Z,11.80
2019-05-18T01:21:12.921Z,11.80
2019-05-18T01:23:41.946Z,11.70
2019-05-18T01:26:11.017Z,11.70
2019-05-18T01:28:39.930Z,11.80
2019-05-18T01:31:08.938Z,11.70
2019-05-18T01:33:37.930Z,11.70
2019-05-18T01:36:06.971Z,11.60
2019-05-18T01:38:35.983Z,11.50
2019-05-18T01:41:05.073Z,11.50
2019-05-18T01:43:34.048Z,11.50
2019-05-18T01:46:03.453Z,11.40
2019-05-18T01:48:32.611Z,11.40
2019-05-18T01:51:01.525Z,11.30
2019-05-18T01:53:30.537Z,11.20
2019-05-18T01:55:59.543Z,11.10
2019-05-18T01:58:28.710Z,11.10
2019-05-18T02:00:57.727Z,11.00
2019-05-18T02:03:26.893Z,10.90
2019-05-18T02:05:55.882Z,11.00
2019-05-18T02:08:24.869Z,11.10
2019-05-18T02:10:54.017Z,11.00
2019-05-18T02:13:22.912Z,11.00
2019-05-18T02:15:51.843Z,10.90
2019-05-18T02:18:28.725Z,10.90
2019-05-18T02:20:51.597Z,10.80
2019-05-18T02:23:20.532Z,10.70
2019-05-18T02:25:49.545Z,10.80
2019-05-18T02:28:18.456Z,10.80
2019-05-18T02:30:47.460Z,10.80
2019-05-18T02:33:16.402Z,10.70
2019-05-18T02:35:45.317Z,10.70
2019-05-18T02:38:15.360Z,10.70
2019-05-18T02:40:44.661Z,10.70
2019-05-18T02:43:14.079Z,10.60
2019-05-18T02:45:43.387Z,10.60
2019-05-18T02:48:12.389Z,10.50
2019-05-18T02:50:41.498Z,10.60
2019-05-18T02:53:10.554Z,10.50
2019-05-18T02:55:39.575Z,10.50
2019-05-18T02:58:08.566Z,10.50
2019-05-18T03:00:37.566Z,10.60
2019-05-18T03:03:06.570Z,10.50
2019-05-18T03:05:35.562Z,10.50
2019-05-18T03:08:04.543Z,10.50
2019-05-18T03:10:33.559Z,10.50
2019-05-18T03:13:02.563Z,10.40
2019-05-18T03:15:31.798Z,10.50
2019-05-18T03:18:00.848Z,10.60
2019-05-18T03:20:29.858Z,10.50
2019-05-18T03:22:59.188Z,10.60
2019-05-18T03:25:28.205Z,10.60
2019-05-18T03:27:57.189Z,10.60
2019-05-18T03:30:26.186Z,10.50
2019-05-18T03:32:55.273Z,10.50
2019-05-18T03:35:24.738Z,10.50
2019-05-18T03:37:53.726Z,10.40
2019-05-18T03:40:22.748Z,10.40
2019-05-18T03:42:51.911Z,10.40
2019-05-18T03:45:20.826Z,10.40
2019-05-18T03:47:49.836Z,10.30
2019-05-18T03:50:18.826Z,10.30
2019-05-18T03:52:47.881Z,10.40
2019-05-18T03:55:16.890Z,10.30
2019-05-18T03:57:45.905Z,10.30
2019-05-18T04:00:15.301Z,10.40
2019-05-18T04:02:44.309Z,10.40
2019-05-18T04:05:13.299Z,10.40
2019-05-18T04:07:42.336Z,10.40
2019-05-18T04:10:11.519Z,10.40
2019-05-18T04:12:40.355Z,10.40
2019-05-18T04:15:10.841Z,10.40
2019-05-18T04:17:39.816Z,10.50
2019-05-18T04:20:09.556Z,10.60
2019-05-18T04:22:38.596Z,10.60
2019-05-18T04:25:07.643Z,10.80
2019-05-18T04:27:36.570Z,10.90
2019-05-18T04:30:05.979Z,10.90
2019-05-18T04:32:34.998Z,11.00
2019-05-18T04:35:04.170Z,11.00
2019-05-18T04:37:33.176Z,11.10
2019-05-18T04:40:02.089Z,11.10
2019-05-18T04:42:31.008Z,11.20
2019-05-18T04:44:59.934Z,11.30
2019-05-18T04:47:28.942Z,11.40
2019-05-18T04:50:05.286Z,11.50
2019-05-18T04:52:28.654Z,11.70
2019-05-18T04:54:57.545Z,11.80
2019-05-18T04:57:26.468Z,11.80
2019-05-18T04:59:55.517Z,11.90
2019-05-18T05:02:24.571Z,12.00
2019-05-18T05:04:56.587Z,12.00
2019-05-18T05:07:24.237Z,12.10
2019-05-18T05:09:53.237Z,12.30
2019-05-18T05:12:22.078Z,12.40
2019-05-18T05:14:51.013Z,12.50
2019-05-18T05:17:20.119Z,12.70
2019-05-18T05:19:48.996Z,12.80
2019-05-18T05:22:18.117Z,12.80
2019-05-18T05:24:47.093Z,12.90
2019-05-18T05:27:15.937Z,13.00
2019-05-18T05:29:44.862Z,13.00
2019-05-18T05:32:13.917Z,13.10
2019-05-18T05:34:42.853Z,13.20
2019-05-18T05:37:11.758Z,13.30
2019-05-18T05:39:40.746Z,13.30
2019-05-18T05:42:09.675Z,13.40
2019-05-18T05:44:38.881Z,13.50
2019-05-18T05:47:07.877Z,13.70
2019-05-18T05:49:36.809Z,13.90
2019-05-18T05:52:05.829Z,14.20
2019-05-18T05:54:36.497Z,14.70
2019-05-18T05:57:05.637Z,15.30
2019-05-18T05:59:34.557Z,15.80
2019-05-18T06:02:03.693Z,16.30
2019-05-18T06:04:32.692Z,16.50
2019-05-18T06:07:01.643Z,17.00
2019-05-18T06:09:30.619Z,17.80
2019-05-18T06:11:59.482Z,18.50
2019-05-18T06:14:28.479Z,19.10
2019-05-18T06:16:57.488Z,19.60
2019-05-18T06:19:26.337Z,20.10
2019-05-18T06:21:55.755Z,20.80
2019-05-18T06:24:24.771Z,21.30
2019-05-18T06:26:53.719Z,21.60
2019-05-18T06:29:22.629Z,22.00
2019-05-18T06:31:51.581Z,22.30
2019-05-18T06:34:20.577Z,22.70
2019-05-18T06:36:49.497Z,23.20
2019-05-18T06:39:18.532Z,23.50
2019-05-18T06:41:47.450Z,24.10
2019-05-18T06:44:16.365Z,24.10
2019-05-18T06:46:45.296Z,24.30
2019-05-18T06:49:14.285Z,25.00
2019-05-18T06:51:43.278Z,25.60
2019-05-18T06:54:12.371Z,25.70
2019-05-18T06:56:42.271Z,25.70
2019-05-18T06:59:12.187Z,26.30
2019-05-18T07:01:41.134Z,26.70
2019-05-18T07:04:10.127Z,27.00
2019-05-18T07:06:39.089Z,27.20
2019-05-18T07:09:13.799Z,27.50
2019-05-18T07:11:39.707Z,27.60
2019-05-18T07:14:08.619Z,27.50
2019-05-18T07:16:37.637Z,27.70
2019-05-18T07:19:15.979Z,28.10
2019-05-18T07:21:53.427Z,28.50
2019-05-18T07:24:22.842Z,29.00
2019-05-18T07:26:55.007Z,29.10
2019-05-18T07:29:24.255Z,29.40
2019-05-18T07:31:53.246Z,29.70
2019-05-18T07:34:26.659Z,29.90
2019-05-18T07:37:00.066Z,30.00
2019-05-18T07:39:38.411Z,29.80
2019-05-18T07:42:07.821Z,29.90
2019-05-18T07:44:52.374Z,30.20
2019-05-18T07:47:38.256Z,30.60
2019-05-18T07:50:08.374Z,30.90
2019-05-18T07:52:40.085Z,31.10
2019-05-18T07:55:16.420Z,31.20
2019-05-18T07:57:51.529Z,31.20
2019-05-18T08:00:23.974Z,31.40
2019-05-18T08:02:53.157Z,30.90
2019-05-18T08:05:22.187Z,31.10
2019-05-18T08:07:51.361Z,31.50
2019-05-18T08:10:43.600Z,31.50
2019-05-18T08:13:12.170Z,31.90
2019-05-18T08:15:41.165Z,32.40
2019-05-18T08:18:10.188Z,32.70
2019-05-18T08:20:39.241Z,33.10
2019-05-18T08:23:08.246Z,33.40
2019-05-18T08:25:37.709Z,33.10
2019-05-18T08:28:06.733Z,33.20
2019-05-18T08:30:35.730Z,33.30
2019-05-18T08:33:04.814Z,33.40
2019-05-18T08:35:33.837Z,33.80
2019-05-18T08:38:02.875Z,33.80
2019-05-18T08:40:31.918Z,34.00
2019-05-18T08:43:00.958Z,33.90
2019-05-18T08:45:30.061Z,34.10
2019-05-18T08:47:59.069Z,34.10
2019-05-18T08:50:28.007Z,33.90
2019-05-18T08:52:57.186Z,33.90
2019-05-18T08:55:26.217Z,34.10
2019-05-18T08:57:55.271Z,33.70
2019-05-18T09:00:24.282Z,33.90
2019-05-18T09:02:53.242Z,33.70
2019-05-18T09:05:22.252Z,33.90
2019-05-18T09:07:51.287Z,34.10
2019-05-18T09:10:20.645Z,33.80
2019-05-18T09:12:49.738Z,33.90
2019-05-18T09:15:18.946Z,33.70
2019-05-18T09:17:47.997Z,33.70
2019-05-18T09:20:17.789Z,34.30
2019-05-18T09:22:46.713Z,34.40
2019-05-18T09:25:16.682Z,34.10
2019-05-18T09:27:45.685Z,33.90
2019-05-18T09:30:15.171Z,34.10
2019-05-18T09:32:44.249Z,34.20
2019-05-18T09:35:13.513Z,33.90
2019-05-18T09:37:42.443Z,33.90
2019-05-18T09:40:11.701Z,34.40
2019-05-18T09:42:40.717Z,33.90
2019-05-18T09:45:10.435Z,34.20
2019-05-18T09:47:39.598Z,34.60
2019-05-18T09:50:09.188Z,34.80
2019-05-18T09:52:46.340Z,34.50
2019-05-18T09:55:09.136Z,34.20
2019-05-18T09:57:38.141Z,34.30
2019-05-18T10:00:07.854Z,34.30
2019-05-18T10:02:38.589Z,33.90
2019-05-18T10:05:07.605Z,33.40
2019-05-18T10:07:36.732Z,32.60
2019-05-18T10:10:06.468Z,32.40
2019-05-18T10:12:35.482Z,32.70
2019-05-18T10:15:04.877Z,32.40
2019-05-18T10:17:33.968Z,32.40
2019-05-18T10:20:03.258Z,32.30
2019-05-18T10:22:32.278Z,32.00
2019-05-18T10:25:01.798Z,31.70
2019-05-18T10:27:30.793Z,31.40
2019-05-18T10:30:00.251Z,31.20
2019-05-18T10:32:29.282Z,31.00
2019-05-18T10:34:58.289Z,31.30
2019-05-18T10:37:27.221Z,30.90
2019-05-18T10:39:56.507Z,30.40
2019-05-18T10:42:25.520Z,30.80
2019-05-18T10:44:54.539Z,30.60
2019-05-18T10:47:23.663Z,30.30
2019-05-18T10:49:52.866Z,29.20
2019-05-18T10:52:21.822Z,29.00
2019-05-18T10:54:50.844Z,29.30
2019-05-18T10:57:19.865Z,29.40
2019-05-18T10:59:48.877Z,29.30
2019-05-18T11:02:17.890Z,29.40
2019-05-18T11:04:46.894Z,29.40
2019-05-18T11:07:15.992Z,29.40
2019-05-18T11:09:44.947Z,29.30
2019-05-18T11:12:13.895Z,28.60
2019-05-18T11:14:42.892Z,28.40
2019-05-18T11:17:11.894Z,28.40
2019-05-18T11:19:41.009Z,28.30
2019-05-18T11:22:10.021Z,28.40
2019-05-18T11:24:39.150Z,28.10
2019-05-18T11:27:08.563Z,28.20
2019-05-18T11:29:37.605Z,28.20
2019-05-18T11:32:06.652Z,28.00
2019-05-18T11:34:35.611Z,28.00
2019-05-18T11:37:04.633Z,27.90
2019-05-18T11:39:33.678Z,27.90
2019-05-18T11:42:02.708Z,27.90
2019-05-18T11:44:31.715Z,27.80
2019-05-18T11:47:01.008Z,27.40
2019-05-18T11:49:30.305Z,27.20
2019-05-18T11:51:59.369Z,27.30
2019-05-18T11:54:28.424Z,27.20
2019-05-18T11:56:57.491Z,27.00
2019-05-18T11:59:26.744Z,26.90
2019-05-18T12:01:55.695Z,27.10
2019-05-18T12:04:24.739Z,27.10
2019-05-18T12:06:53.761Z,27.00
2019-05-18T12:09:23.796Z,26.30
2019-05-18T12:11:52.877Z,25.50
2019-05-18T12:14:21.911Z,25.70
2019-05-18T12:16:50.955Z,26.10
2019-05-18T12:19:19.990Z,26.00
2019-05-18T12:21:48.991Z,25.70
2019-05-18T12:24:18.073Z,25.80
2019-05-18T12:26:47.052Z,25.90
2019-05-18T12:29:16.093Z,25.90
2019-05-18T12:31:45.262Z,25.70
2019-05-18T12:34:14.137Z,25.60
2019-05-18T12:36:43.401Z,25.50
2019-05-18T12:39:12.442Z,25.40
2019-05-18T12:41:41.468Z,25.00
2019-05-18T12:44:10.492Z,25.00
2019-05-18T12:46:39.536Z,25.00
2019-05-18T12:49:08.521Z,25.20
2019-05-18T12:51:37.559Z,24.80
2019-05-18T12:54:06.727Z,24.60
2019-05-18T12:56:36.330Z,24.90
2019-05-18T12:59:05.346Z,25.10
2019-05-18T13:01:34.360Z,24.80
2019-05-18T13:04:05.089Z,24.80
2019-05-18T13:06:34.157Z,25.00
2019-05-18T13:09:04.059Z,25.10
2019-05-18T13:11:33.049Z,25.20
2019-05-18T13:14:02.264Z,24.80
2019-05-18T13:16:31.302Z,24.90
2019-05-18T13:19:00.369Z,25.00
2019-05-18T13:21:29.363Z,25.10
2019-05-18T13:23:58.616Z,25.20
2019-05-18T13:26:27.710Z,25.40
2019-05-18T13:28:56.982Z,25.60
2019-05-18T13:31:34.454Z,25.70
2019-05-18T13:34:03.485Z,25.60
2019-05-18T13:36:32.518Z,25.90
2019-05-18T13:39:01.659Z,26.10
2019-05-18T13:41:30.709Z,26.20
2019-05-18T13:43:59.640Z,26.30
2019-05-18T13:46:28.601Z,26.10
2019-05-18T13:48:57.999Z,26.10
2019-05-18T13:51:27.014Z,26.20
2019-05-18T13:53:56.050Z,26.20
2019-05-18T13:56:31.934Z,26.00
2019-05-18T13:59:05.696Z,26.10
2019-05-18T14:01:34.718Z,26.20
2019-05-18T14:04:03.754Z,26.10
2019-05-18T14:06:32.881Z,26.20
2019-05-18T14:09:01.905Z,26.20
2019-05-18T14:11:30.931Z,26.20
2019-05-18T14:13:59.978Z,26.20
2019-05-18T14:16:29.072Z,26.10
2019-05-18T14:18:58.106Z,25.90
2019-05-18T14:21:27.234Z,26.00
2019-05-18T14:23:56.107Z,26.10
2019-05-18T14:26:26.608Z,25.80
2019-05-18T14:29:04.157Z,25.80
2019-05-18T14:31:33.246Z,25.80
2019-05-18T14:34:02.515Z,25.80
2019-05-18T14:36:31.452Z,25.80
2019-05-18T14:39:00.412Z,25.80
2019-05-18T14:41:29.361Z,25.80
2019-05-18T14:43:58.370Z,25.70
2019-05-18T14:46:27.381Z,25.50
2019-05-18T14:48:56.301Z,25.40
2019-05-18T14:51:25.226Z,25.40
2019-05-18T14:53:54.386Z,25.40
2019-05-18T14:56:23.418Z,25.30
2019-05-18T14:58:52.359Z,25.20
2019-05-18T15:01:21.300Z,25.30
2019-05-18T15:03:50.332Z,25.20
2019-05-18T15:06:19.337Z,25.10
2019-05-18T15:08:48.570Z,25.20
2019-05-18T15:11:17.578Z,25.10
2019-05-18T15:13:46.925Z,25.00
2019-05-18T15:16:15.787Z,25.00
2019-05-18T15:18:44.967Z,24.80
2019-05-18T15:21:13.967Z,24.70
2019-05-18T15:23:43.707Z,24.50
2019-05-18T15:26:12.760Z,24.40
2019-05-18T15:28:41.777Z,24.00
2019-05-18T15:31:10.795Z,22.50
2019-05-18T15:33:39.818Z,22.20
2019-05-18T15:36:08.849Z,21.20
2019-05-18T15:38:38.143Z,20.30
2019-05-18T15:41:07.206Z,19.10
2019-05-18T15:43:36.284Z,19.00
2019-05-18T15:46:05.290Z,18.60
2019-05-18T15:48:34.424Z,18.70
2019-05-18T15:51:04.193Z,18.40
2019-05-18T15:53:33.278Z,18.60
2019-05-18T15:56:05.620Z,18.60
2019-05-18T15:58:33.507Z,18.60
2019-05-18T16:01:02.643Z,18.50
2019-05-18T16:03:31.702Z,18.80
2019-05-18T16:06:00.905Z,18.60
2019-05-18T16:08:29.986Z,18.10
2019-05-18T16:10:59.131Z,18.10
2019-05-18T16:13:28.164Z,18.10
2019-05-18T16:15:57.669Z,18.20
2019-05-18T16:18:26.989Z,18.00
2019-05-18T16:20:56.192Z,17.60
2019-05-18T16:23:25.642Z,17.70
2019-05-18T16:25:54.673Z,17.40
2019-05-18T16:28:23.761Z,17.30
2019-05-18T16:30:52.853Z,17.30
2019-05-18T16:33:22.329Z,17.50
2019-05-18T16:35:51.955Z,17.20
2019-05-18T16:38:21.083Z,17.20
2019-05-18T16:40:50.034Z,17.40
2019-05-18T16:43:21.860Z,17.50
2019-05-18T16:45:51.025Z,17.50
2019-05-18T16:48:20.117Z,17.40
2019-05-18T16:50:49.910Z,17.50
2019-05-18T16:53:19.033Z,17.60
2019-05-18T16:55:48.164Z,17.80
2019-05-18T16:58:17.204Z,17.80
2019-05-18T17:00:46.257Z,17.80
2019-05-18T17:03:15.382Z,17.70
2019-05-18T17:05:45.201Z,17.70
2019-05-18T17:08:14.307Z,17.60
2019-05-18T17:10:43.354Z,17.20
2019-05-18T17:13:12.383Z,17.20
2019-05-18T17:15:41.472Z,17.40
2019-05-18T17:18:10.440Z,17.40
2019-05-18T17:20:39.388Z,17.30
2019-05-18T17:23:08.402Z,17.30
2019-05-18T17:25:37.351Z,17.10
2019-05-18T17:28:06.370Z,17.00
2019-05-18T17:30:35.440Z,16.90
2019-05-18T17:33:04.454Z,17.00
2019-05-18T17:35:33.682Z,16.90
2019-05-18T17:38:02.679Z,17.00
2019-05-18T17:40:31.615Z,16.90
2019-05-18T17:43:00.613Z,17.00
2019-05-18T17:45:29.858Z,16.90
2019-05-18T17:47:58.888Z,16.80
2019-05-18T17:50:28.501Z,16.80
2019-05-18T17:52:57.755Z,16.90
2019-05-18T17:55:26.762Z,17.00
2019-05-18T17:57:55.683Z,17.10
2019-05-18T18:00:24.691Z,17.00
2019-05-18T18:02:53.638Z,16.90
2019-05-18T18:05:22.633Z,16.80
2019-05-18T18:07:55.304Z,16.50
2019-05-18T18:10:22.461Z,16.60
2019-05-18T18:12:51.453Z,16.80
2019-05-18T18:15:20.834Z,16.70
2019-05-18T18:17:49.863Z,16.60
2019-05-18T18:20:19.377Z,16.50
2019-05-18T18:22:48.305Z,16.50
2019-05-18T18:25:17.321Z,16.60
2019-05-18T18:27:46.505Z,16.60
2019-05-18T18:30:16.282Z,16.50
2019-05-18T18:32:45.402Z,16.40
2019-05-18T18:35:14.879Z,16.20
2019-05-18T18:37:44.326Z,16.30
2019-05-18T18:40:13.367Z,16.30
2019-05-18T18:42:42.286Z,16.20
2019-05-18T18:45:11.704Z,16.10
2019-05-18T18:47:40.716Z,15.80
2019-05-18T18:50:09.889Z,15.90
2019-05-18T18:52:39.156Z,15.80
2019-05-18T18:55:08.394Z,15.60
2019-05-18T18:57:42.077Z,15.70
2019-05-18T19:00:08.750Z,15.80
2019-05-18T19:02:38.316Z,15.70
2019-05-18T19:05:07.790Z,15.50
2019-05-18T19:07:36.885Z,15.40
2019-05-18T19:10:07.172Z,15.40
2019-05-18T19:12:36.363Z,15.50
2019-05-18T19:15:05.806Z,15.60
2019-05-18T19:17:34.927Z,15.60
2019-05-18T19:20:04.034Z,15.70
2019-05-18T19:22:33.093Z,15.70
2019-05-18T19:25:02.720Z,15.70
2019-05-18T19:27:32.173Z,15.60
2019-05-18T19:30:02.847Z,15.50
2019-05-18T19:32:31.865Z,15.40
2019-05-18T19:35:00.754Z,15.40
2019-05-18T19:37:29.631Z,15.30
2019-05-18T19:39:58.670Z,15.20
2019-05-18T19:42:28.111Z,15.20
2019-05-18T19:44:57.041Z,15.20
2019-05-18T19:47:25.970Z,15.20
2019-05-18T19:49:55.012Z,15.30
2019-05-18T19:52:24.801Z,15.30
2019-05-18T19:54:54.004Z,15.10
2019-05-18T19:57:23.016Z,15.10
2019-05-18T19:59:52.393Z,15.10
2019-05-18T20:02:21.615Z,15.00
2019-05-18T20:05:06.317Z,15.00
2019-05-18T20:07:21.295Z,15.00
2019-05-18T20:09:52.908Z,15.00
2019-05-18T20:12:21.389Z,14.90
2019-05-18T20:14:50.564Z,14.90
2019-05-18T20:17:19.493Z,14.80
2019-05-18T20:19:48.510Z,14.80
2019-05-18T20:22:17.454Z,14.90
2019-05-18T20:24:46.470Z,14.80
2019-05-18T20:27:15.475Z,14.70
2019-05-18T20:29:44.411Z,14.80
2019-05-18T20:32:13.518Z,14.70
2019-05-18T20:34:42.717Z,14.70
2019-05-18T20:37:11.726Z,14.60
2019-05-18T20:39:40.753Z,14.60
2019-05-18T20:42:10.009Z,14.60
2019-05-18T20:44:38.945Z,14.60
2019-05-18T20:47:08.507Z,14.60
2019-05-18T20:49:37.345Z,14.60
2019-05-18T20:52:06.663Z,14.60
2019-05-18T20:54:36.102Z,14.70
2019-05-18T20:57:05.014Z,14.70
2019-05-18T20:59:33.945Z,14.70
2019-05-18T21:02:02.975Z,14.60
2019-05-18T21:04:32.079Z,14.70
2019-05-18T21:07:01.097Z,14.70
2019-05-18T21:09:30.149Z,14.60
2019-05-18T21:11:59.222Z,14.50
2019-05-18T21:14:28.245Z,14.40
2019-05-18T21:16:57.342Z,14.50
2019-05-18T21:19:26.610Z,14.40
2019-05-18T21:21:55.461Z,14.50
2019-05-18T21:24:24.621Z,14.60
2019-05-18T21:26:53.626Z,14.60
2019-05-18T21:29:22.561Z,14.70
2019-05-18T21:31:51.509Z,14.60
2019-05-18T21:34:20.442Z,14.60
2019-05-18T21:36:49.293Z,14.50
2019-05-18T21:39:18.260Z,14.50
2019-05-18T21:41:47.185Z,14.40
2019-05-18T21:44:16.369Z,14.40
2019-05-18T21:46:45.462Z,14.40
2019-05-18T21:49:14.407Z,14.40
2019-05-18T21:51:43.323Z,14.30
2019-05-18T21:54:12.337Z,14.30
2019-05-18T21:56:41.335Z,14.30
2019-05-18T21:59:12.212Z,14.20
2019-05-18T22:01:41.071Z,14.20
2019-05-18T22:04:10.344Z,14.10
2019-05-18T22:06:39.618Z,14.20
2019-05-18T22:09:08.741Z,14.20
2019-05-18T22:11:37.723Z,14.20
2019-05-18T22:14:06.949Z,14.10
2019-05-18T22:16:35.970Z,13.90
2019-05-18T22:19:05.108Z,14.00
2019-05-18T22:21:34.126Z,14.00
2019-05-18T22:24:03.213Z,14.10
2019-05-18T22:26:32.082Z,14.10
2019-05-18T22:29:01.128Z,14.10
2019-05-18T22:31:30.181Z,14.10
2019-05-18T22:33:59.110Z,14.00
2019-05-18T22:36:28.114Z,14.00
2019-05-18T22:38:57.269Z,14.00
2019-05-18T22:41:26.193Z,14.00
2019-05-18T22:43:55.185Z,14.00
2019-05-18T22:46:24.210Z,13.90
2019-05-18T22:48:53.229Z,14.00
2019-05-18T22:51:22.418Z,13.90
2019-05-18T22:53:51.497Z,14.00
2019-05-18T22:56:20.498Z,14.00
2019-05-18T22:58:49.493Z,14.00
2019-05-18T23:01:18.743Z,13.90
2019-05-18T23:03:47.602Z,13.90
2019-05-18T23:06:16.540Z,13.90
2019-05-18T23:08:45.825Z,13.80
2019-05-18T23:11:14.878Z,13.70
2019-05-18T23:13:44.289Z,13.60
2019-05-18T23:16:13.231Z,13.70
2019-05-18T23:18:55.946Z,13.80
2019-05-18T23:21:12.875Z,13.90
2019-05-18T23:23:41.842Z,13.90
2019-05-18T23:26:11.622Z,13.80
2019-05-18T23:28:40.799Z,13.80
2019-05-18T23:31:09.734Z,13.80
2019-05-18T23:33:38.652Z,13.90
2019-05-18T23:36:07.570Z,13.90
2019-05-18T23:38:36.443Z,13.80
2019-05-18T23:41:05.425Z,13.80
2019-05-18T23:43:34.503Z,13.80
2019-05-18T23:46:03.514Z,13.70
2019-05-18T23:48:32.441Z,13.70
2019-05-18T23:51:01.538Z,13.70
2019-05-18T23:53:30.584Z,13.80
2019-05-18T23:55:59.582Z,13.80
2019-05-18T23:58:28.695Z,13.80
